createdAt,value
2018-12-24T00:00:54.913Z,1.50
2018-12-24T00:03:23.480Z,1.90
2018-12-24T00:05:52.283Z,2.00
2018-12-24T00:08:20.837Z,2.07
2018-12-24T00:10:49.485Z,1.70
2018-12-24T00:13:18.126Z,1.77
2018-12-24T00:15:46.845Z,1.80
2018-12-24T00:18:15.404Z,1.80
2018-12-24T00:20:44.039Z,2.00
2018-12-24T00:23:12.592Z,1.93
2018-12-24T00:25:41.150Z,2.00
2018-12-24T00:28:09.772Z,1.77
2018-12-24T00:30:38.410Z,2.33
2018-12-24T00:33:06.967Z,2.00
2018-12-24T00:35:35.607Z,2.00
2018-12-24T00:38:04.263Z,2.10
2018-12-24T00:40:32.818Z,2.00
2018-12-24T00:43:01.658Z,2.13
2018-12-24T00:45:30.203Z,2.23
2018-12-24T00:47:58.754Z,2.93
2018-12-24T00:50:27.328Z,3.00
2018-12-24T00:52:56.001Z,2.90
2018-12-24T00:55:24.553Z,3.03
2018-12-24T00:57:53.117Z,3.37
2018-12-24T01:00:21.819Z,3.10
2018-12-24T01:02:50.513Z,3.77
2018-12-24T01:05:19.074Z,3.13
2018-12-24T01:07:47.900Z,2.60
2018-12-24T01:10:16.713Z,2.60
2018-12-24T01:12:45.267Z,3.10
2018-12-24T01:15:13.834Z,2.73
2018-12-24T01:17:42.541Z,3.00
2018-12-24T01:20:11.139Z,3.43
2018-12-24T01:22:39.694Z,3.83
2018-12-24T01:25:08.617Z,3.13
2018-12-24T01:27:37.165Z,4.90
2018-12-24T01:30:05.960Z,3.23
2018-12-24T01:32:34.614Z,3.70
2018-12-24T01:35:03.477Z,4.80
2018-12-24T01:37:32.179Z,3.50
2018-12-24T01:40:00.800Z,3.40
2018-12-24T01:42:33.401Z,3.30
2018-12-24T01:44:59.804Z,3.07
2018-12-24T01:47:28.374Z,3.70
2018-12-24T01:49:56.925Z,3.20
2018-12-24T01:52:25.532Z,3.50
2018-12-24T01:54:54.086Z,3.70
2018-12-24T01:57:22.634Z,3.20
2018-12-24T01:59:51.214Z,3.13
2018-12-24T02:02:19.847Z,3.63
2018-12-24T02:04:48.501Z,3.20
2018-12-24T02:07:17.090Z,3.50
2018-12-24T02:09:45.649Z,3.83
2018-12-24T02:12:14.266Z,3.47
2018-12-24T02:14:42.966Z,3.03
2018-12-24T02:17:11.597Z,3.10
2018-12-24T02:19:40.216Z,3.07
2018-12-24T02:22:12.772Z,3.30
2018-12-24T02:24:39.126Z,2.93
2018-12-24T02:27:07.731Z,3.23
2018-12-24T02:29:36.293Z,2.90
2018-12-24T02:32:04.957Z,3.23
2018-12-24T02:34:33.608Z,2.80
2018-12-24T02:37:02.233Z,2.57
2018-12-24T02:39:31.005Z,2.60
2018-12-24T02:41:59.705Z,2.50
2018-12-24T02:44:28.256Z,2.20
2018-12-24T02:46:56.836Z,1.93
2018-12-24T02:49:25.475Z,1.60
2018-12-24T02:51:54.172Z,1.50
2018-12-24T02:54:22.797Z,1.70
2018-12-24T02:56:51.426Z,1.53
2018-12-24T02:59:20.055Z,1.70
2018-12-24T03:01:48.681Z,1.40
2018-12-24T03:04:17.350Z,1.73
2018-12-24T03:06:45.921Z,1.73
2018-12-24T03:09:14.547Z,1.80
2018-12-24T03:11:43.111Z,1.80
2018-12-24T03:14:11.656Z,1.73
2018-12-24T03:16:40.277Z,1.90
2018-12-24T03:19:08.832Z,2.07
2018-12-24T03:21:37.398Z,1.90
2018-12-24T03:24:06.024Z,1.60
2018-12-24T03:26:34.585Z,1.83
2018-12-24T03:29:03.209Z,1.40
2018-12-24T03:31:31.852Z,1.83
2018-12-24T03:34:00.409Z,1.80
2018-12-24T03:36:29.041Z,1.70
2018-12-24T03:38:57.841Z,2.00
2018-12-24T03:41:26.400Z,2.10
2018-12-24T03:43:54.956Z,1.83
2018-12-24T03:46:23.644Z,1.87
2018-12-24T03:48:52.197Z,1.77
2018-12-24T03:51:20.761Z,1.60
2018-12-24T03:53:49.359Z,1.87
2018-12-24T03:56:17.926Z,1.97
2018-12-24T03:58:46.624Z,2.00
2018-12-24T04:01:15.176Z,1.90
2018-12-24T04:03:43.758Z,1.90
2018-12-24T04:06:12.583Z,1.87
2018-12-24T04:08:41.180Z,1.87
2018-12-24T04:11:09.738Z,1.70
2018-12-24T04:13:38.364Z,1.60
2018-12-24T04:16:06.921Z,1.90
2018-12-24T04:18:35.473Z,1.70
2018-12-24T04:21:04.297Z,1.70
2018-12-24T04:23:32.968Z,2.07
2018-12-24T04:26:01.539Z,1.80
2018-12-24T04:28:30.117Z,1.87
2018-12-24T04:30:58.988Z,1.87
2018-12-24T04:33:27.554Z,2.07
2018-12-24T04:35:56.115Z,1.70
2018-12-24T04:38:24.765Z,2.00
2018-12-24T04:40:53.398Z,1.67
2018-12-24T04:43:21.955Z,1.70
2018-12-24T04:45:52.414Z,1.80
2018-12-24T04:48:21.227Z,1.80
2018-12-24T04:50:49.774Z,2.00
2018-12-24T04:53:18.481Z,1.90
2018-12-24T04:55:47.033Z,2.10
2018-12-24T04:58:15.652Z,1.90
2018-12-24T05:00:44.271Z,1.90
2018-12-24T05:03:12.824Z,2.07
2018-12-24T05:05:41.450Z,1.90
2018-12-24T05:08:10.125Z,1.90
2018-12-24T05:10:38.683Z,1.90
2018-12-24T05:13:07.507Z,1.87
2018-12-24T05:15:36.056Z,2.07
2018-12-24T05:18:04.764Z,2.20
2018-12-24T05:20:33.367Z,1.80
2018-12-24T05:23:01.904Z,2.00
2018-12-24T05:25:30.460Z,2.43
2018-12-24T05:27:59.195Z,2.40
2018-12-24T05:30:27.841Z,1.60
2018-12-24T05:32:56.394Z,1.93
2018-12-24T05:35:24.992Z,1.80
2018-12-24T05:37:53.532Z,2.07
2018-12-24T05:40:22.091Z,2.10
2018-12-24T05:42:50.701Z,1.97
2018-12-24T05:45:20.150Z,1.70
2018-12-24T05:47:48.812Z,1.90
2018-12-24T05:50:17.385Z,1.73
2018-12-24T05:52:45.953Z,1.90
2018-12-24T05:55:14.529Z,2.03
2018-12-24T05:57:43.086Z,2.00
2018-12-24T06:00:11.647Z,2.10
2018-12-24T06:02:40.294Z,1.80
2018-12-24T06:05:09.241Z,2.50
2018-12-24T06:07:37.934Z,2.20
2018-12-24T06:10:06.673Z,2.20
2018-12-24T06:12:35.313Z,1.87
2018-12-24T06:15:04.049Z,2.37
2018-12-24T06:17:32.674Z,2.37
2018-12-24T06:20:01.236Z,2.20
2018-12-24T06:22:29.808Z,2.60
2018-12-24T06:24:58.477Z,2.23
2018-12-24T06:27:27.041Z,2.30
2018-12-24T06:29:55.612Z,2.20
2018-12-24T06:32:24.221Z,2.20
2018-12-24T06:34:52.786Z,2.17
2018-12-24T06:37:21.348Z,2.40
2018-12-24T06:39:50.224Z,2.03
2018-12-24T06:42:18.860Z,2.10
2018-12-24T06:44:47.407Z,2.37
2018-12-24T06:47:16.025Z,2.23
2018-12-24T06:49:44.653Z,2.83
2018-12-24T06:52:13.200Z,2.23
2018-12-24T06:54:41.825Z,2.50
2018-12-24T06:57:10.380Z,2.63
2018-12-24T06:59:38.934Z,2.57
2018-12-24T07:02:07.512Z,2.40
2018-12-24T07:04:36.063Z,2.10
2018-12-24T07:07:04.679Z,2.40
2018-12-24T07:09:33.239Z,2.60
2018-12-24T07:12:01.803Z,2.43
2018-12-24T07:14:30.443Z,2.27
2018-12-24T07:16:59.004Z,2.50
2018-12-24T07:19:27.560Z,2.77
2018-12-24T07:21:56.181Z,3.50
2018-12-24T07:24:24.741Z,2.40
2018-12-24T07:26:53.297Z,2.70
2018-12-24T07:29:21.938Z,2.60
2018-12-24T07:31:50.576Z,2.77
2018-12-24T07:34:19.137Z,2.50
2018-12-24T07:36:48.381Z,2.50
2018-12-24T07:39:16.955Z,2.67
2018-12-24T07:41:45.518Z,2.73
2018-12-24T07:44:14.144Z,3.70
2018-12-24T07:46:42.709Z,3.63
2018-12-24T07:49:11.261Z,3.03
2018-12-24T07:51:39.829Z,2.93
2018-12-24T07:54:08.464Z,2.80
2018-12-24T07:56:37.019Z,3.00
2018-12-24T07:59:05.583Z,4.37
2018-12-24T08:01:34.197Z,2.97
2018-12-24T08:04:02.760Z,2.63
2018-12-24T08:06:31.305Z,3.40
2018-12-24T08:08:59.917Z,3.80
2018-12-24T08:11:28.484Z,3.17
2018-12-24T08:13:57.043Z,3.67
2018-12-24T08:16:25.676Z,4.10
2018-12-24T08:18:54.485Z,3.87
2018-12-24T08:21:23.045Z,4.33
2018-12-24T08:23:51.634Z,3.03
2018-12-24T08:26:20.312Z,3.63
2018-12-24T08:28:48.929Z,4.00
2018-12-24T08:31:17.523Z,3.20
2018-12-24T08:33:46.245Z,3.70
2018-12-24T08:36:14.805Z,5.60
2018-12-24T08:38:43.453Z,3.87
2018-12-24T08:41:12.154Z,4.17
2018-12-24T08:43:40.720Z,3.70
2018-12-24T08:46:09.355Z,4.53
2018-12-24T08:48:37.962Z,4.93
2018-12-24T08:51:06.512Z,7.43
2018-12-24T08:53:35.139Z,7.30
2018-12-24T08:56:03.835Z,6.63
2018-12-24T08:58:32.384Z,6.30
2018-12-24T09:01:01.017Z,6.60
2018-12-24T09:03:29.626Z,5.13
2018-12-24T09:05:58.181Z,5.07
2018-12-24T09:08:26.733Z,6.10
2018-12-24T09:10:55.370Z,5.13
2018-12-24T09:13:23.918Z,7.17
2018-12-24T09:15:52.477Z,8.57
2018-12-24T09:18:21.108Z,7.03
2018-12-24T09:20:52.771Z,6.20
2018-12-24T09:23:19.959Z,6.40
2018-12-24T09:25:48.611Z,7.40
2018-12-24T09:28:17.243Z,5.90
2018-12-24T09:30:47.513Z,7.07
2018-12-24T09:33:16.288Z,5.00
2018-12-24T09:35:44.929Z,6.13
2018-12-24T09:38:13.480Z,5.13
2018-12-24T09:40:42.101Z,5.30
2018-12-24T09:43:12.717Z,3.53
2018-12-24T09:45:41.356Z,3.50
2018-12-24T09:48:10.020Z,5.13
2018-12-24T09:50:38.652Z,4.40
2018-12-24T09:53:07.212Z,3.53
2018-12-24T09:55:35.825Z,5.63
2018-12-24T09:58:04.381Z,5.93
2018-12-24T10:00:32.944Z,4.57
2018-12-24T10:03:02.805Z,4.60
2018-12-24T10:05:31.386Z,4.57
2018-12-24T10:08:03.484Z,4.37
2018-12-24T10:10:32.196Z,3.87
2018-12-24T10:13:00.830Z,3.77
2018-12-24T10:15:29.445Z,6.37
2018-12-24T10:17:58.092Z,5.67
2018-12-24T10:20:26.648Z,5.53
2018-12-24T10:22:55.222Z,6.27
2018-12-24T10:25:24.014Z,6.83
2018-12-24T10:27:52.668Z,5.27
2018-12-24T10:30:21.237Z,4.17
2018-12-24T10:32:49.878Z,3.17
2018-12-24T10:35:18.512Z,6.77
2018-12-24T10:37:47.140Z,4.87
2018-12-24T10:40:15.852Z,5.50
2018-12-24T10:42:44.428Z,4.50
2018-12-24T10:45:16.494Z,4.73
2018-12-24T10:47:43.355Z,5.27
2018-12-24T10:50:11.917Z,6.70
2018-12-24T10:52:40.541Z,5.40
2018-12-24T10:55:09.349Z,5.33
2018-12-24T10:57:37.982Z,4.43
2018-12-24T11:00:08.166Z,5.73
2018-12-24T11:02:36.752Z,4.80
2018-12-24T11:05:05.449Z,4.43
2018-12-24T11:07:34.051Z,5.50
2018-12-24T11:10:02.888Z,4.80
2018-12-24T11:12:31.449Z,5.80
2018-12-24T11:15:00.032Z,5.67
2018-12-24T11:17:28.582Z,4.93
2018-12-24T11:19:57.199Z,4.40
2018-12-24T11:22:25.932Z,4.80
2018-12-24T11:24:54.504Z,4.03
2018-12-24T11:27:23.215Z,4.00
2018-12-24T11:29:51.841Z,3.90
2018-12-24T11:32:20.405Z,3.83
2018-12-24T11:34:48.964Z,3.60
2018-12-24T11:37:17.536Z,4.23
2018-12-24T11:39:46.092Z,3.50
2018-12-24T11:42:14.721Z,3.80
2018-12-24T11:44:43.324Z,5.80
2018-12-24T11:47:12.229Z,4.80
2018-12-24T11:49:40.853Z,4.00
2018-12-24T11:52:09.431Z,3.30
2018-12-24T11:54:38.056Z,2.83
2018-12-24T11:57:06.665Z,3.40
2018-12-24T11:59:35.221Z,3.77
2018-12-24T12:02:09.932Z,3.13
2018-12-24T12:04:34.121Z,3.43
2018-12-24T12:07:02.689Z,3.43
2018-12-24T12:09:31.327Z,3.23
2018-12-24T12:11:59.946Z,3.20
2018-12-24T12:14:28.646Z,3.07
2018-12-24T12:16:57.282Z,3.37
2018-12-24T12:19:25.956Z,3.50
2018-12-24T12:21:54.590Z,3.07
2018-12-24T12:24:23.295Z,3.07
2018-12-24T12:26:51.947Z,3.27
2018-12-24T12:29:20.529Z,3.23
2018-12-24T12:31:51.065Z,3.33
2018-12-24T12:34:19.512Z,4.80
2018-12-24T12:36:48.080Z,3.30
2018-12-24T12:39:16.646Z,2.80
2018-12-24T12:41:45.270Z,2.90
2018-12-24T12:44:13.829Z,2.97
2018-12-24T12:46:42.386Z,3.57
2018-12-24T12:49:11.144Z,3.40
2018-12-24T12:51:39.705Z,6.23
2018-12-24T12:54:08.275Z,6.33
2018-12-24T12:56:36.893Z,7.03
2018-12-24T12:59:05.466Z,5.83
2018-12-24T13:01:34.098Z,5.90
2018-12-24T13:04:02.724Z,7.37
2018-12-24T13:06:31.348Z,5.70
2018-12-24T13:08:59.896Z,5.87
2018-12-24T13:11:28.525Z,5.90
2018-12-24T13:13:57.112Z,5.30
2018-12-24T13:16:25.664Z,5.63
2018-12-24T13:18:54.275Z,4.90
2018-12-24T13:21:22.814Z,6.63
2018-12-24T13:23:51.399Z,6.90
2018-12-24T13:26:20.012Z,6.23
2018-12-24T13:28:48.615Z,5.17
2018-12-24T13:31:17.254Z,4.90
2018-12-24T13:33:45.828Z,5.23
2018-12-24T13:36:14.443Z,5.13
2018-12-24T13:38:43.010Z,5.20
2018-12-24T13:41:11.555Z,6.67
2018-12-24T13:43:40.201Z,5.27
2018-12-24T13:46:08.824Z,6.17
2018-12-24T13:48:37.445Z,5.90
2018-12-24T13:51:44.748Z,6.10
2018-12-24T13:54:13.259Z,5.70
2018-12-24T13:56:41.788Z,6.87
2018-12-24T13:59:10.251Z,6.40
2018-12-24T14:01:38.740Z,6.70
2018-12-24T14:04:07.208Z,8.30
2018-12-24T14:06:35.985Z,7.33
2018-12-24T14:09:06.842Z,7.47
2018-12-24T14:11:35.285Z,6.37
2018-12-24T14:14:03.728Z,6.90
2018-12-24T14:16:32.235Z,8.07
2018-12-24T14:19:00.699Z,7.40
2018-12-24T14:21:29.140Z,6.53
2018-12-24T14:23:57.630Z,6.57
2018-12-24T14:26:26.071Z,7.27
2018-12-24T14:28:54.521Z,6.10
2018-12-24T14:31:23.044Z,6.20
2018-12-24T14:33:51.504Z,11.83
2018-12-24T14:36:19.957Z,11.60
2018-12-24T14:38:48.448Z,7.20
2018-12-24T14:41:16.888Z,8.43
2018-12-24T14:43:45.337Z,7.73
2018-12-24T14:46:13.903Z,8.70
2018-12-24T14:48:42.345Z,8.13
2018-12-24T14:51:10.800Z,9.17
2018-12-24T14:53:39.279Z,9.17
2018-12-24T14:56:07.737Z,9.70
2018-12-24T14:58:36.264Z,8.20
2018-12-24T15:01:04.779Z,8.27
2018-12-24T15:03:33.230Z,8.30
2018-12-24T15:06:01.743Z,8.60
2018-12-24T15:08:30.266Z,9.57
2018-12-24T15:10:58.708Z,8.73
2018-12-24T15:13:27.168Z,11.00
2018-12-24T15:15:55.679Z,11.40
2018-12-24T15:18:24.123Z,8.90
2018-12-24T15:20:52.571Z,10.73
2018-12-24T15:23:21.156Z,9.77
2018-12-24T15:25:49.606Z,11.00
2018-12-24T15:28:18.066Z,8.60
2018-12-24T15:30:46.641Z,9.23
2018-12-24T15:33:15.079Z,9.30
2018-12-24T15:35:43.543Z,8.90
2018-12-24T15:38:12.011Z,11.00
2018-12-24T15:40:40.536Z,10.63
2018-12-24T15:43:08.988Z,12.53
2018-12-24T15:45:37.435Z,11.20
2018-12-24T15:48:05.953Z,10.73
2018-12-24T15:50:34.401Z,10.43
2018-12-24T15:53:02.839Z,9.67
2018-12-24T15:55:31.360Z,11.47
2018-12-24T15:58:00.659Z,10.30
2018-12-24T16:00:29.105Z,11.43
2018-12-24T16:02:57.644Z,11.23
2018-12-24T16:05:26.097Z,11.03
2018-12-24T16:07:54.551Z,10.77
2018-12-24T16:10:23.059Z,11.50
2018-12-24T16:12:51.515Z,10.83
2018-12-24T16:15:19.971Z,11.83
2018-12-24T16:17:48.460Z,9.57
2018-12-24T16:20:16.910Z,15.57
2018-12-24T16:22:45.373Z,14.37
2018-12-24T16:25:14.072Z,12.07
2018-12-24T16:27:42.615Z,12.00
2018-12-24T16:30:11.067Z,13.47
2018-12-24T16:32:39.572Z,14.13
2018-12-24T16:35:08.031Z,16.30
2018-12-24T16:37:36.587Z,13.03
2018-12-24T16:40:05.398Z,15.33
2018-12-24T16:42:33.854Z,15.47
2018-12-24T16:45:03.377Z,15.80
2018-12-24T16:47:32.232Z,15.43
2018-12-24T16:50:00.692Z,15.33
2018-12-24T16:52:29.385Z,15.80
2018-12-24T16:54:57.835Z,16.67
2018-12-24T16:57:26.305Z,19.87
2018-12-24T16:59:54.843Z,14.47
2018-12-24T17:02:23.297Z,18.23
2018-12-24T17:04:51.761Z,16.57
2018-12-24T17:07:20.240Z,18.37
2018-12-24T17:09:48.703Z,18.57
2018-12-24T17:12:17.211Z,19.37
2018-12-24T17:14:45.669Z,21.27
2018-12-24T17:17:14.129Z,21.93
2018-12-24T17:19:42.664Z,22.07
2018-12-24T17:22:11.185Z,19.10
2018-12-24T17:24:39.631Z,19.27
2018-12-24T17:27:08.100Z,19.70
2018-12-24T17:29:36.627Z,19.23
2018-12-24T17:32:05.093Z,23.67
2018-12-24T17:34:33.547Z,18.90
2018-12-24T17:37:02.022Z,23.13
2018-12-24T17:39:30.479Z,23.30
2018-12-24T17:41:58.977Z,21.10
2018-12-24T17:44:27.438Z,18.70
2018-12-24T17:46:55.896Z,18.37
2018-12-24T17:49:24.475Z,21.53
2018-12-24T17:51:52.939Z,22.37
2018-12-24T17:54:21.470Z,27.63
2018-12-24T17:56:50.009Z,24.47
2018-12-24T17:59:18.752Z,23.00
2018-12-24T18:01:47.342Z,20.37
2018-12-24T18:04:15.906Z,20.50
2018-12-24T18:06:44.377Z,21.47
2018-12-24T18:09:12.972Z,19.67
2018-12-24T18:11:41.992Z,20.63
2018-12-24T18:14:10.743Z,22.20
2018-12-24T18:16:39.273Z,20.80
2018-12-24T18:19:08.005Z,17.60
2018-12-24T18:21:36.732Z,21.37
2018-12-24T18:24:05.247Z,19.60
2018-12-24T18:26:34.478Z,18.50
2018-12-24T18:29:03.000Z,18.43
2018-12-24T18:31:31.537Z,15.47
2018-12-24T18:33:59.989Z,17.00
2018-12-24T18:36:28.435Z,14.50
2018-12-24T18:38:56.951Z,16.77
2018-12-24T18:41:25.408Z,14.70
2018-12-24T18:43:53.862Z,14.10
2018-12-24T18:46:22.372Z,16.40
2018-12-24T18:48:50.820Z,13.47
2018-12-24T18:51:19.274Z,12.30
2018-12-24T18:53:47.743Z,14.67
2018-12-24T18:56:16.281Z,15.10
2018-12-24T18:58:44.809Z,13.03
2018-12-24T19:01:13.271Z,16.53
2018-12-24T19:03:41.996Z,14.13
2018-12-24T19:06:10.751Z,16.67
2018-12-24T19:08:39.309Z,16.30
2018-12-24T19:11:07.742Z,20.67
2018-12-24T19:13:36.352Z,16.30
2018-12-24T19:16:04.875Z,19.77
2018-12-24T19:18:33.395Z,16.37
2018-12-24T19:21:01.996Z,21.50
2018-12-24T19:23:30.591Z,19.37
2018-12-24T19:25:59.121Z,22.97
2018-12-24T19:28:27.948Z,20.43
2018-12-24T19:30:56.678Z,17.57
2018-12-24T19:33:25.325Z,20.53
2018-12-24T19:35:53.853Z,21.63
2018-12-24T19:38:22.669Z,20.70
2018-12-24T19:40:51.193Z,19.00
2018-12-24T19:43:19.787Z,23.57
2018-12-24T19:45:48.251Z,19.33
2018-12-24T19:48:16.707Z,19.23
2018-12-24T19:50:45.228Z,19.40
2018-12-24T19:53:13.695Z,19.47
2018-12-24T19:55:42.324Z,18.70
2018-12-24T19:58:11.486Z,19.07
2018-12-24T20:00:40.019Z,15.63
2018-12-24T20:03:08.482Z,19.17
2018-12-24T20:05:37.006Z,19.17
2018-12-24T20:08:05.468Z,18.33
2018-12-24T20:10:33.946Z,16.57
2018-12-24T20:13:02.474Z,16.83
2018-12-24T20:15:31.000Z,15.83
2018-12-24T20:17:59.517Z,15.87
2018-12-24T20:20:29.633Z,17.20
2018-12-24T20:22:58.095Z,15.57
2018-12-24T20:25:26.624Z,17.27
2018-12-24T20:27:55.167Z,15.00
2018-12-24T20:30:23.634Z,15.53
2018-12-24T20:32:52.221Z,12.70
2018-12-24T20:35:20.936Z,13.80
2018-12-24T20:37:49.399Z,12.63
2018-12-24T20:40:17.912Z,14.40
2018-12-24T20:42:46.369Z,14.17
2018-12-24T20:45:14.833Z,13.43
2018-12-24T20:47:43.366Z,13.07
2018-12-24T20:50:11.811Z,16.43
2018-12-24T20:52:40.257Z,10.47
2018-12-24T20:55:08.764Z,15.03
2018-12-24T20:57:37.219Z,13.13
2018-12-24T21:00:07.514Z,13.77
2018-12-24T21:02:35.978Z,11.07
2018-12-24T21:05:05.767Z,8.57
2018-12-24T21:07:34.481Z,10.13
2018-12-24T21:10:02.996Z,11.73
2018-12-24T21:12:31.523Z,12.47
2018-12-24T21:15:00.421Z,13.10
2018-12-24T21:17:28.905Z,9.47
2018-12-24T21:19:57.482Z,11.53
2018-12-24T21:22:26.000Z,8.63
2018-12-24T21:24:54.451Z,12.60
2018-12-24T21:27:23.014Z,8.53
2018-12-24T21:29:51.534Z,8.57
2018-12-24T21:32:20.097Z,9.07
2018-12-24T21:34:48.759Z,5.27
2018-12-24T21:37:17.359Z,9.53
2018-12-24T21:39:45.855Z,5.73
2018-12-24T21:42:14.367Z,11.00
2018-12-24T21:44:42.828Z,6.23
2018-12-24T21:47:11.268Z,6.83
2018-12-24T21:49:39.735Z,7.20
2018-12-24T21:52:08.248Z,5.33
2018-12-24T21:54:36.763Z,4.67
2018-12-24T21:57:06.153Z,6.10
2018-12-24T21:59:34.660Z,5.37
2018-12-24T22:02:03.286Z,5.20
2018-12-24T22:04:31.804Z,5.53
2018-12-24T22:07:00.396Z,7.10
2018-12-24T22:09:28.920Z,4.57
2018-12-24T22:11:57.371Z,5.63
2018-12-24T22:14:26.108Z,9.80
2018-12-24T22:16:54.561Z,7.53
2018-12-24T22:19:23.007Z,7.50
2018-12-24T22:21:51.520Z,7.70
2018-12-24T22:24:19.973Z,8.77
2018-12-24T22:26:48.410Z,5.27
2018-12-24T22:29:16.909Z,9.27
2018-12-24T22:31:45.361Z,9.37
2018-12-24T22:34:13.813Z,7.83
2018-12-24T22:36:42.322Z,12.30
2018-12-24T22:39:10.869Z,10.00
2018-12-24T22:41:39.333Z,7.87
2018-12-24T22:44:07.849Z,4.83
2018-12-24T22:46:36.315Z,10.73
2018-12-24T22:49:04.769Z,8.93
2018-12-24T22:51:33.288Z,11.87
2018-12-24T22:54:01.742Z,9.40
2018-12-24T22:56:30.215Z,3.97
2018-12-24T22:58:58.780Z,10.20
2018-12-24T23:01:27.479Z,9.13
2018-12-24T23:03:56.075Z,6.40
2018-12-24T23:06:24.681Z,11.17
2018-12-24T23:08:53.135Z,4.83
2018-12-24T23:11:21.655Z,10.50
2018-12-24T23:13:50.167Z,9.50
2018-12-24T23:16:18.622Z,9.43
2018-12-24T23:18:49.524Z,12.70
2018-12-24T23:21:17.300Z,7.80
2018-12-24T23:23:45.741Z,8.97
2018-12-24T23:26:14.187Z,7.43
2018-12-24T23:28:42.713Z,9.10
2018-12-24T23:31:11.165Z,10.83
2018-12-24T23:33:39.615Z,15.20
2018-12-24T23:36:08.265Z,7.50
2018-12-24T23:38:36.713Z,7.93
2018-12-24T23:41:05.313Z,10.40
2018-12-24T23:43:33.833Z,12.93
2018-12-24T23:46:02.367Z,10.83
2018-12-24T23:48:30.826Z,12.03
2018-12-24T23:50:59.333Z,12.47
2018-12-24T23:53:27.793Z,9.50
2018-12-24T23:55:56.311Z,8.07
2018-12-24T23:58:24.800Z,7.33
